sensor_id;sensor_type;location;lat;lon;timestamp;P1;durP1;ratioP1;P2;durP2;ratioP2
57337;SDS011;43173;50.980;18.204;2023-06-22T00:02:15;21.10;;;16.20;;
57337;SDS011;43173;50.980;18.204;2023-06-22T00:04:41;23.60;;;16.20;;
57337;SDS011;43173;50.980;18.204;2023-06-22T00:07:06;21.10;;;16.40;;
57337;SDS011;43173;50.980;18.204;2023-06-22T00:09:32;21.30;;;16.50;;
57337;SDS011;43173;50.980;18.204;2023-06-22T00:11:58;22.10;;;16.60;;
57337;SDS011;43173;50.980;18.204;2023-06-22T00:14:24;20.50;;;17.00;;
57337;SDS011;43173;50.980;18.204;2023-06-22T00:16:49;22.30;;;17.60;;
57337;SDS011;43173;50.980;18.204;2023-06-22T00:19:20;24.70;;;18.20;;
57337;SDS011;43173;50.980;18.204;2023-06-22T00:21:47;25.20;;;17.90;;
57337;SDS011;43173;50.980;18.204;2023-06-22T00:24:18;20.80;;;16.80;;
57337;SDS011;43173;50.980;18.204;2023-06-22T00:26:45;23.50;;;17.80;;
57337;SDS011;43173;50.980;18.204;2023-06-22T00:29:10;27.50;;;18.10;;
57337;SDS011;43173;50.980;18.204;2023-06-22T00:31:36;22.90;;;18.20;;
57337;SDS011;43173;50.980;18.204;2023-06-22T00:34:02;27.50;;;19.30;;
57337;SDS011;43173;50.980;18.204;2023-06-22T00:36:27;23.40;;;19.10;;
57337;SDS011;43173;50.980;18.204;2023-06-22T00:38:53;23.80;;;18.10;;
57337;SDS011;43173;50.980;18.204;2023-06-22T00:41:19;23.60;;;18.10;;
57337;SDS011;43173;50.980;18.204;2023-06-22T00:43:44;29.90;;;19.60;;
57337;SDS011;43173;50.980;18.204;2023-06-22T00:46:10;23.50;;;19.00;;
57337;SDS011;43173;50.980;18.204;2023-06-22T00:48:36;25.80;;;19.80;;
57337;SDS011;43173;50.980;18.204;2023-06-22T00:51:02;28.50;;;22.50;;
57337;SDS011;43173;50.980;18.204;2023-06-22T00:53:28;27.80;;;21.40;;
57337;SDS011;43173;50.980;18.204;2023-06-22T00:55:54;26.90;;;22.10;;
57337;SDS011;43173;50.980;18.204;2023-06-22T00:58:19;27.90;;;22.40;;
57337;SDS011;43173;50.980;18.204;2023-06-22T01:00:51;31.20;;;23.90;;
57337;SDS011;43173;50.980;18.204;2023-06-22T01:03:16;29.70;;;23.40;;
57337;SDS011;43173;50.980;18.204;2023-06-22T01:05:42;33.30;;;24.60;;
57337;SDS011;43173;50.980;18.204;2023-06-22T01:11:16;33.90;;;25.40;;
57337;SDS011;43173;50.980;18.204;2023-06-22T01:16:17;33.40;;;26.30;;
57337;SDS011;43173;50.980;18.204;2023-06-22T01:18:55;35.20;;;26.50;;
57337;SDS011;43173;50.980;18.204;2023-06-22T01:21:23;32.70;;;26.00;;
57337;SDS011;43173;50.980;18.204;2023-06-22T01:24:02;34.50;;;27.20;;
57337;SDS011;43173;50.980;18.204;2023-06-22T01:26:42;34.40;;;27.60;;
57337;SDS011;43173;50.980;18.204;2023-06-22T01:29:12;39.90;;;27.30;;
57337;SDS011;43173;50.980;18.204;2023-06-22T01:31:39;36.30;;;27.00;;
57337;SDS011;43173;50.980;18.204;2023-06-22T01:34:05;38.90;;;29.80;;
57337;SDS011;43173;50.980;18.204;2023-06-22T01:36:32;37.60;;;30.90;;
57337;SDS011;43173;50.980;18.204;2023-06-22T01:38:58;36.20;;;29.60;;
57337;SDS011;43173;50.980;18.204;2023-06-22T01:41:25;36.90;;;29.60;;
57337;SDS011;43173;50.980;18.204;2023-06-22T01:43:52;38.70;;;29.70;;
57337;SDS011;43173;50.980;18.204;2023-06-22T01:46:19;39.10;;;31.10;;
57337;SDS011;43173;50.980;18.204;2023-06-22T01:48:46;39.10;;;31.30;;
57337;SDS011;43173;50.980;18.204;2023-06-22T01:51:12;39.60;;;31.60;;
57337;SDS011;43173;50.980;18.204;2023-06-22T01:53:37;40.00;;;31.30;;
57337;SDS011;43173;50.980;18.204;2023-06-22T01:56:03;40.40;;;31.80;;
57337;SDS011;43173;50.980;18.204;2023-06-22T01:58:30;40.30;;;30.50;;
57337;SDS011;43173;50.980;18.204;2023-06-22T02:01:09;41.10;;;31.60;;
57337;SDS011;43173;50.980;18.204;2023-06-22T02:03:44;37.30;;;30.30;;
57337;SDS011;43173;50.980;18.204;2023-06-22T02:06:23;43.70;;;32.10;;
57337;SDS011;43173;50.980;18.204;2023-06-22T02:08:55;40.80;;;32.70;;
57337;SDS011;43173;50.980;18.204;2023-06-22T02:11:24;40.20;;;32.20;;
57337;SDS011;43173;50.980;18.204;2023-06-22T02:13:52;40.70;;;31.80;;
57337;SDS011;43173;50.980;18.204;2023-06-22T02:16:19;42.50;;;33.40;;
57337;SDS011;43173;50.980;18.204;2023-06-22T02:18:47;43.10;;;32.80;;
57337;SDS011;43173;50.980;18.204;2023-06-22T02:21:18;45.90;;;33.00;;
57337;SDS011;43173;50.980;18.204;2023-06-22T02:23:44;43.60;;;34.50;;
57337;SDS011;43173;50.980;18.204;2023-06-22T02:26:09;45.60;;;34.20;;
57337;SDS011;43173;50.980;18.204;2023-06-22T02:28:35;42.20;;;33.40;;
57337;SDS011;43173;50.980;18.204;2023-06-22T02:31:01;48.70;;;36.40;;
57337;SDS011;43173;50.980;18.204;2023-06-22T02:33:26;49.40;;;37.20;;
57337;SDS011;43173;50.980;18.204;2023-06-22T02:35:52;45.90;;;36.10;;
57337;SDS011;43173;50.980;18.204;2023-06-22T02:38:18;52.70;;;38.20;;
57337;SDS011;43173;50.980;18.204;2023-06-22T02:40:45;50.60;;;37.80;;
57337;SDS011;43173;50.980;18.204;2023-06-22T02:43:11;45.20;;;36.20;;
57337;SDS011;43173;50.980;18.204;2023-06-22T02:45:37;51.00;;;38.00;;
57337;SDS011;43173;50.980;18.204;2023-06-22T02:48:03;48.70;;;37.20;;
57337;SDS011;43173;50.980;18.204;2023-06-22T02:50:29;52.50;;;38.80;;
57337;SDS011;43173;50.980;18.204;2023-06-22T02:52:55;57.30;;;38.40;;
57337;SDS011;43173;50.980;18.204;2023-06-22T02:55:21;53.40;;;38.40;;
57337;SDS011;43173;50.980;18.204;2023-06-22T02:57:46;55.70;;;41.90;;
57337;SDS011;43173;50.980;18.204;2023-06-22T03:00:13;53.80;;;40.10;;
57337;SDS011;43173;50.980;18.204;2023-06-22T03:02:43;53.90;;;40.90;;
57337;SDS011;43173;50.980;18.204;2023-06-22T03:05:10;53.80;;;38.80;;
57337;SDS011;43173;50.980;18.204;2023-06-22T03:07:42;53.20;;;39.80;;
57337;SDS011;43173;50.980;18.204;2023-06-22T03:10:12;51.00;;;39.10;;
57337;SDS011;43173;50.980;18.204;2023-06-22T03:12:38;53.50;;;41.20;;
57337;SDS011;43173;50.980;18.204;2023-06-22T03:15:09;56.70;;;41.40;;
57337;SDS011;43173;50.980;18.204;2023-06-22T03:22:37;53.40;;;40.20;;
57337;SDS011;43173;50.980;18.204;2023-06-22T03:25:04;53.80;;;40.80;;
57337;SDS011;43173;50.980;18.204;2023-06-22T03:27:35;56.70;;;41.90;;
57337;SDS011;43173;50.980;18.204;2023-06-22T03:30:05;54.70;;;40.70;;
57337;SDS011;43173;50.980;18.204;2023-06-22T03:32:32;57.00;;;42.90;;
57337;SDS011;43173;50.980;18.204;2023-06-22T03:34:58;58.60;;;43.60;;
57337;SDS011;43173;50.980;18.204;2023-06-22T03:37:24;61.60;;;42.40;;
57337;SDS011;43173;50.980;18.204;2023-06-22T03:39:51;54.80;;;40.60;;
57337;SDS011;43173;50.980;18.204;2023-06-22T03:42:17;55.10;;;42.70;;
57337;SDS011;43173;50.980;18.204;2023-06-22T03:44:42;54.50;;;41.60;;
57337;SDS011;43173;50.980;18.204;2023-06-22T03:47:08;58.60;;;41.30;;
57337;SDS011;43173;50.980;18.204;2023-06-22T03:49:34;55.10;;;41.90;;
57337;SDS011;43173;50.980;18.204;2023-06-22T03:52:01;58.20;;;42.90;;
57337;SDS011;43173;50.980;18.204;2023-06-22T03:54:28;56.40;;;44.10;;
57337;SDS011;43173;50.980;18.204;2023-06-22T03:56:54;56.00;;;42.60;;
57337;SDS011;43173;50.980;18.204;2023-06-22T03:59:21;58.70;;;42.90;;
57337;SDS011;43173;50.980;18.204;2023-06-22T04:01:47;58.40;;;46.30;;
57337;SDS011;43173;50.980;18.204;2023-06-22T04:04:12;57.70;;;44.30;;
57337;SDS011;43173;50.980;18.204;2023-06-22T04:06:38;64.60;;;45.70;;
57337;SDS011;43173;50.980;18.204;2023-06-22T04:09:05;60.60;;;45.50;;
57337;SDS011;43173;50.980;18.204;2023-06-22T04:11:31;59.10;;;45.50;;
57337;SDS011;43173;50.980;18.204;2023-06-22T04:13:57;59.00;;;44.30;;
57337;SDS011;43173;50.980;18.204;2023-06-22T04:16:22;56.60;;;43.30;;
57337;SDS011;43173;50.980;18.204;2023-06-22T04:18:48;55.00;;;41.90;;
57337;SDS011;43173;50.980;18.204;2023-06-22T04:21:14;55.60;;;40.80;;
57337;SDS011;43173;50.980;18.204;2023-06-22T04:23:39;53.10;;;42.10;;
57337;SDS011;43173;50.980;18.204;2023-06-22T04:26:05;53.40;;;42.80;;
57337;SDS011;43173;50.980;18.204;2023-06-22T04:28:30;56.70;;;43.50;;
57337;SDS011;43173;50.980;18.204;2023-06-22T04:31:03;53.40;;;43.20;;
57337;SDS011;43173;50.980;18.204;2023-06-22T04:33:30;55.90;;;43.50;;
57337;SDS011;43173;50.980;18.204;2023-06-22T04:35:56;51.60;;;40.60;;
57337;SDS011;43173;50.980;18.204;2023-06-22T04:38:29;54.00;;;41.70;;
57337;SDS011;43173;50.980;18.204;2023-06-22T04:40:58;55.10;;;40.50;;
57337;SDS011;43173;50.980;18.204;2023-06-22T04:43:26;52.40;;;41.60;;
57337;SDS011;43173;50.980;18.204;2023-06-22T04:45:56;50.60;;;39.30;;
57337;SDS011;43173;50.980;18.204;2023-06-22T04:48:28;47.60;;;38.90;;
57337;SDS011;43173;50.980;18.204;2023-06-22T04:50:58;44.00;;;36.40;;
57337;SDS011;43173;50.980;18.204;2023-06-22T04:53:29;50.40;;;36.80;;
57337;SDS011;43173;50.980;18.204;2023-06-22T04:55:55;46.50;;;37.10;;
57337;SDS011;43173;50.980;18.204;2023-06-22T04:58:21;46.50;;;35.30;;
57337;SDS011;43173;50.980;18.204;2023-06-22T05:00:46;43.00;;;33.70;;
57337;SDS011;43173;50.980;18.204;2023-06-22T05:03:12;40.70;;;31.80;;
57337;SDS011;43173;50.980;18.204;2023-06-22T05:05:38;39.70;;;31.40;;
57337;SDS011;43173;50.980;18.204;2023-06-22T05:08:04;34.70;;;29.50;;
57337;SDS011;43173;50.980;18.204;2023-06-22T05:10:32;36.60;;;30.40;;
57337;SDS011;43173;50.980;18.204;2023-06-22T05:12:59;39.10;;;29.60;;
57337;SDS011;43173;50.980;18.204;2023-06-22T05:15:24;36.80;;;28.90;;
57337;SDS011;43173;50.980;18.204;2023-06-22T05:17:53;34.30;;;26.60;;
57337;SDS011;43173;50.980;18.204;2023-06-22T05:20:19;29.50;;;24.50;;
57337;SDS011;43173;50.980;18.204;2023-06-22T05:22:47;27.40;;;22.50;;
57337;SDS011;43173;50.980;18.204;2023-06-22T05:25:12;27.30;;;20.20;;
57337;SDS011;43173;50.980;18.204;2023-06-22T05:27:38;25.40;;;19.80;;
57337;SDS011;43173;50.980;18.204;2023-06-22T05:30:07;21.90;;;17.50;;
57337;SDS011;43173;50.980;18.204;2023-06-22T05:32:34;18.90;;;15.30;;
57337;SDS011;43173;50.980;18.204;2023-06-22T05:35:00;16.60;;;14.50;;
57337;SDS011;43173;50.980;18.204;2023-06-22T05:37:26;18.60;;;14.20;;
57337;SDS011;43173;50.980;18.204;2023-06-22T05:39:52;16.70;;;13.80;;
57337;SDS011;43173;50.980;18.204;2023-06-22T05:42:19;17.10;;;13.80;;
57337;SDS011;43173;50.980;18.204;2023-06-22T05:44:45;16.30;;;13.70;;
57337;SDS011;43173;50.980;18.204;2023-06-22T05:47:12;15.10;;;13.50;;
57337;SDS011;43173;50.980;18.204;2023-06-22T05:49:37;16.30;;;12.80;;
57337;SDS011;43173;50.980;18.204;2023-06-22T05:52:03;14.80;;;12.30;;
57337;SDS011;43173;50.980;18.204;2023-06-22T05:54:29;16.90;;;12.20;;
57337;SDS011;43173;50.980;18.204;2023-06-22T05:56:55;14.00;;;11.40;;
57337;SDS011;43173;50.980;18.204;2023-06-22T05:59:21;14.90;;;11.00;;
57337;SDS011;43173;50.980;18.204;2023-06-22T06:01:46;13.30;;;11.50;;
57337;SDS011;43173;50.980;18.204;2023-06-22T06:04:16;18.60;;;12.00;;
57337;SDS011;43173;50.980;18.204;2023-06-22T06:06:42;13.60;;;10.90;;
57337;SDS011;43173;50.980;18.204;2023-06-22T06:09:08;13.30;;;10.60;;
57337;SDS011;43173;50.980;18.204;2023-06-22T06:11:33;15.40;;;11.00;;
57337;SDS011;43173;50.980;18.204;2023-06-22T06:13:59;15.20;;;10.70;;
57337;SDS011;43173;50.980;18.204;2023-06-22T06:16:24;13.40;;;9.70;;
57337;SDS011;43173;50.980;18.204;2023-06-22T06:18:50;13.40;;;9.70;;
57337;SDS011;43173;50.980;18.204;2023-06-22T06:21:16;13.00;;;10.00;;
57337;SDS011;43173;50.980;18.204;2023-06-22T06:23:42;14.60;;;10.50;;
57337;SDS011;43173;50.980;18.204;2023-06-22T06:26:08;10.90;;;9.60;;
57337;SDS011;43173;50.980;18.204;2023-06-22T06:28:34;12.10;;;9.40;;
57337;SDS011;43173;50.980;18.204;2023-06-22T06:31:00;12.50;;;9.20;;
57337;SDS011;43173;50.980;18.204;2023-06-22T06:33:25;18.10;;;9.40;;
57337;SDS011;43173;50.980;18.204;2023-06-22T06:35:51;13.90;;;9.30;;
57337;SDS011;43173;50.980;18.204;2023-06-22T06:38:17;11.20;;;8.80;;
57337;SDS011;43173;50.980;18.204;2023-06-22T06:40:42;9.70;;;8.40;;
57337;SDS011;43173;50.980;18.204;2023-06-22T06:43:09;14.30;;;9.30;;
57337;SDS011;43173;50.980;18.204;2023-06-22T06:45:35;10.90;;;8.50;;
57337;SDS011;43173;50.980;18.204;2023-06-22T06:48:01;10.80;;;8.60;;
57337;SDS011;43173;50.980;18.204;2023-06-22T06:50:27;10.50;;;9.00;;
57337;SDS011;43173;50.980;18.204;2023-06-22T06:52:53;12.20;;;9.20;;
57337;SDS011;43173;50.980;18.204;2023-06-22T06:55:19;10.00;;;8.40;;
57337;SDS011;43173;50.980;18.204;2023-06-22T06:57:45;13.60;;;8.60;;
57337;SDS011;43173;50.980;18.204;2023-06-22T07:00:13;11.10;;;8.80;;
57337;SDS011;43173;50.980;18.204;2023-06-22T07:02:41;13.60;;;8.80;;
57337;SDS011;43173;50.980;18.204;2023-06-22T07:05:11;15.70;;;8.80;;
57337;SDS011;43173;50.980;18.204;2023-06-22T07:07:37;12.50;;;9.10;;
57337;SDS011;43173;50.980;18.204;2023-06-22T07:10:03;11.40;;;8.70;;
57337;SDS011;43173;50.980;18.204;2023-06-22T07:12:30;10.90;;;8.90;;
57337;SDS011;43173;50.980;18.204;2023-06-22T07:15:01;14.20;;;9.70;;
57337;SDS011;43173;50.980;18.204;2023-06-22T07:17:28;11.80;;;9.80;;
57337;SDS011;43173;50.980;18.204;2023-06-22T07:19:54;14.00;;;8.50;;
57337;SDS011;43173;50.980;18.204;2023-06-22T07:22:20;17.60;;;9.70;;
57337;SDS011;43173;50.980;18.204;2023-06-22T07:24:46;11.90;;;9.90;;
57337;SDS011;43173;50.980;18.204;2023-06-22T07:27:11;12.10;;;9.30;;
57337;SDS011;43173;50.980;18.204;2023-06-22T07:29:38;15.70;;;10.00;;
57337;SDS011;43173;50.980;18.204;2023-06-22T07:32:06;11.60;;;9.40;;
57337;SDS011;43173;50.980;18.204;2023-06-22T07:34:32;13.80;;;9.40;;
57337;SDS011;43173;50.980;18.204;2023-06-22T07:36:59;12.60;;;8.80;;
57337;SDS011;43173;50.980;18.204;2023-06-22T07:39:24;10.60;;;9.30;;
57337;SDS011;43173;50.980;18.204;2023-06-22T07:41:52;14.40;;;9.20;;
57337;SDS011;43173;50.980;18.204;2023-06-22T07:44:18;11.00;;;9.20;;
57337;SDS011;43173;50.980;18.204;2023-06-22T07:46:44;12.40;;;9.10;;
57337;SDS011;43173;50.980;18.204;2023-06-22T07:49:09;9.50;;;8.60;;
57337;SDS011;43173;50.980;18.204;2023-06-22T07:51:35;10.30;;;9.20;;
57337;SDS011;43173;50.980;18.204;2023-06-22T07:54:01;12.10;;;9.50;;
57337;SDS011;43173;50.980;18.204;2023-06-22T07:56:26;12.40;;;9.80;;
57337;SDS011;43173;50.980;18.204;2023-06-22T07:58:52;11.90;;;8.70;;
57337;SDS011;43173;50.980;18.204;2023-06-22T08:01:18;10.90;;;9.70;;
57337;SDS011;43173;50.980;18.204;2023-06-22T08:03:50;12.40;;;10.10;;
57337;SDS011;43173;50.980;18.204;2023-06-22T08:06:15;12.60;;;9.50;;
57337;SDS011;43173;50.980;18.204;2023-06-22T08:08:41;10.60;;;9.50;;
57337;SDS011;43173;50.980;18.204;2023-06-22T08:11:08;13.70;;;10.40;;
57337;SDS011;43173;50.980;18.204;2023-06-22T08:13:34;11.30;;;9.90;;
57337;SDS011;43173;50.980;18.204;2023-06-22T08:15:59;15.10;;;10.00;;
57337;SDS011;43173;50.980;18.204;2023-06-22T08:18:25;10.60;;;9.10;;
57337;SDS011;43173;50.980;18.204;2023-06-22T08:20:51;12.40;;;9.80;;
57337;SDS011;43173;50.980;18.204;2023-06-22T08:23:16;12.10;;;9.50;;
57337;SDS011;43173;50.980;18.204;2023-06-22T08:25:42;11.20;;;10.10;;
57337;SDS011;43173;50.980;18.204;2023-06-22T08:28:08;15.90;;;10.40;;
57337;SDS011;43173;50.980;18.204;2023-06-22T08:30:33;12.90;;;10.70;;
57337;SDS011;43173;50.980;18.204;2023-06-22T08:32:59;13.80;;;9.70;;
57337;SDS011;43173;50.980;18.204;2023-06-22T08:35:24;10.50;;;9.40;;
57337;SDS011;43173;50.980;18.204;2023-06-22T08:37:50;11.70;;;9.50;;
57337;SDS011;43173;50.980;18.204;2023-06-22T08:40:19;11.00;;;9.80;;
57337;SDS011;43173;50.980;18.204;2023-06-22T08:42:46;11.50;;;10.10;;
57337;SDS011;43173;50.980;18.204;2023-06-22T08:45:12;10.40;;;9.40;;
57337;SDS011;43173;50.980;18.204;2023-06-22T08:47:39;12.40;;;10.10;;
57337;SDS011;43173;50.980;18.204;2023-06-22T08:50:07;11.60;;;9.40;;
57337;SDS011;43173;50.980;18.204;2023-06-22T08:52:34;10.60;;;9.20;;
57337;SDS011;43173;50.980;18.204;2023-06-22T08:55:00;9.90;;;9.00;;
57337;SDS011;43173;50.980;18.204;2023-06-22T08:57:26;11.30;;;9.70;;
57337;SDS011;43173;50.980;18.204;2023-06-22T08:59:53;11.30;;;10.00;;
57337;SDS011;43173;50.980;18.204;2023-06-22T09:02:18;11.90;;;9.50;;
57337;SDS011;43173;50.980;18.204;2023-06-22T09:04:47;9.60;;;8.70;;
57337;SDS011;43173;50.980;18.204;2023-06-22T09:07:14;10.10;;;8.60;;
57337;SDS011;43173;50.980;18.204;2023-06-22T09:09:40;9.60;;;8.70;;
57337;SDS011;43173;50.980;18.204;2023-06-22T09:14:34;9.40;;;8.40;;
57337;SDS011;43173;50.980;18.204;2023-06-22T09:17:00;10.30;;;8.80;;
57337;SDS011;43173;50.980;18.204;2023-06-22T09:19:25;11.20;;;8.70;;
57337;SDS011;43173;50.980;18.204;2023-06-22T09:21:51;9.70;;;8.50;;
57337;SDS011;43173;50.980;18.204;2023-06-22T09:24:17;10.90;;;8.50;;
57337;SDS011;43173;50.980;18.204;2023-06-22T09:26:42;10.40;;;9.40;;
57337;SDS011;43173;50.980;18.204;2023-06-22T09:29:08;9.10;;;8.00;;
57337;SDS011;43173;50.980;18.204;2023-06-22T09:31:34;9.40;;;8.40;;
57337;SDS011;43173;50.980;18.204;2023-06-22T09:34:00;9.10;;;8.20;;
57337;SDS011;43173;50.980;18.204;2023-06-22T09:36:25;10.40;;;8.40;;
57337;SDS011;43173;50.980;18.204;2023-06-22T09:38:51;12.10;;;9.10;;
57337;SDS011;43173;50.980;18.204;2023-06-22T09:41:21;10.70;;;8.80;;
57337;SDS011;43173;50.980;18.204;2023-06-22T09:43:47;11.20;;;8.40;;
57337;SDS011;43173;50.980;18.204;2023-06-22T09:46:16;8.80;;;7.90;;
57337;SDS011;43173;50.980;18.204;2023-06-22T09:48:42;9.60;;;7.80;;
57337;SDS011;43173;50.980;18.204;2023-06-22T09:51:07;9.80;;;7.70;;
57337;SDS011;43173;50.980;18.204;2023-06-22T09:53:33;7.60;;;6.80;;
57337;SDS011;43173;50.980;18.204;2023-06-22T09:56:00;9.20;;;7.50;;
57337;SDS011;43173;50.980;18.204;2023-06-22T09:58:27;8.50;;;7.40;;
57337;SDS011;43173;50.980;18.204;2023-06-22T10:00:53;8.40;;;7.50;;
57337;SDS011;43173;50.980;18.204;2023-06-22T10:03:20;10.10;;;7.90;;
57337;SDS011;43173;50.980;18.204;2023-06-22T10:05:46;8.90;;;7.50;;
57337;SDS011;43173;50.980;18.204;2023-06-22T10:08:12;8.00;;;7.30;;
57337;SDS011;43173;50.980;18.204;2023-06-22T10:10:37;8.30;;;6.70;;
57337;SDS011;43173;50.980;18.204;2023-06-22T10:13:07;7.60;;;6.80;;
57337;SDS011;43173;50.980;18.204;2023-06-22T10:15:37;9.80;;;7.10;;
57337;SDS011;43173;50.980;18.204;2023-06-22T10:18:03;8.00;;;7.20;;
57337;SDS011;43173;50.980;18.204;2023-06-22T10:20:29;9.40;;;6.40;;
57337;SDS011;43173;50.980;18.204;2023-06-22T10:22:55;7.70;;;6.60;;
57337;SDS011;43173;50.980;18.204;2023-06-22T10:25:21;7.20;;;6.50;;
57337;SDS011;43173;50.980;18.204;2023-06-22T10:27:47;6.80;;;6.10;;
57337;SDS011;43173;50.980;18.204;2023-06-22T10:30:13;7.00;;;6.00;;
57337;SDS011;43173;50.980;18.204;2023-06-22T10:32:39;8.10;;;6.00;;
57337;SDS011;43173;50.980;18.204;2023-06-22T10:35:06;6.90;;;6.20;;
57337;SDS011;43173;50.980;18.204;2023-06-22T10:37:32;7.50;;;6.00;;
57337;SDS011;43173;50.980;18.204;2023-06-22T10:39:58;6.80;;;6.10;;
57337;SDS011;43173;50.980;18.204;2023-06-22T10:42:23;7.10;;;6.40;;
57337;SDS011;43173;50.980;18.204;2023-06-22T10:44:49;7.80;;;6.10;;
57337;SDS011;43173;50.980;18.204;2023-06-22T10:47:14;6.60;;;5.50;;
57337;SDS011;43173;50.980;18.204;2023-06-22T10:49:40;6.30;;;5.70;;
57337;SDS011;43173;50.980;18.204;2023-06-22T10:52:06;6.10;;;5.60;;
57337;SDS011;43173;50.980;18.204;2023-06-22T10:54:33;5.50;;;5.00;;
57337;SDS011;43173;50.980;18.204;2023-06-22T10:57:00;7.90;;;5.90;;
57337;SDS011;43173;50.980;18.204;2023-06-22T10:59:26;6.30;;;5.80;;
57337;SDS011;43173;50.980;18.204;2023-06-22T11:01:52;7.10;;;5.80;;
57337;SDS011;43173;50.980;18.204;2023-06-22T11:04:18;8.60;;;5.60;;
57337;SDS011;43173;50.980;18.204;2023-06-22T11:06:44;6.50;;;5.70;;
57337;SDS011;43173;50.980;18.204;2023-06-22T11:21:05;6.60;;;5.30;;
57337;SDS011;43173;50.980;18.204;2023-06-22T11:23:30;5.90;;;5.30;;
57337;SDS011;43173;50.980;18.204;2023-06-22T11:25:56;5.90;;;5.30;;
57337;SDS011;43173;50.980;18.204;2023-06-22T11:28:22;5.80;;;5.30;;
57337;SDS011;43173;50.980;18.204;2023-06-22T11:30:48;6.00;;;5.50;;
57337;SDS011;43173;50.980;18.204;2023-06-22T11:33:15;6.40;;;5.40;;
57337;SDS011;43173;50.980;18.204;2023-06-22T11:35:41;6.30;;;5.50;;
57337;SDS011;43173;50.980;18.204;2023-06-22T11:38:06;6.20;;;5.60;;
57337;SDS011;43173;50.980;18.204;2023-06-22T11:40:33;5.80;;;5.20;;
57337;SDS011;43173;50.980;18.204;2023-06-22T11:42:58;5.60;;;5.10;;
57337;SDS011;43173;50.980;18.204;2023-06-22T11:45:24;6.00;;;5.50;;
57337;SDS011;43173;50.980;18.204;2023-06-22T11:47:50;6.30;;;5.50;;
57337;SDS011;43173;50.980;18.204;2023-06-22T11:50:16;5.70;;;5.10;;
57337;SDS011;43173;50.980;18.204;2023-06-22T11:52:42;7.70;;;5.80;;
57337;SDS011;43173;50.980;18.204;2023-06-22T11:55:07;9.00;;;5.40;;
57337;SDS011;43173;50.980;18.204;2023-06-22T11:57:34;10.60;;;5.50;;
57337;SDS011;43173;50.980;18.204;2023-06-22T12:00:00;5.60;;;5.00;;
57337;SDS011;43173;50.980;18.204;2023-06-22T12:02:26;5.90;;;5.30;;
57337;SDS011;43173;50.980;18.204;2023-06-22T12:04:52;5.60;;;4.70;;
57337;SDS011;43173;50.980;18.204;2023-06-22T12:07:20;8.10;;;5.00;;
57337;SDS011;43173;50.980;18.204;2023-06-22T12:09:46;5.00;;;4.60;;
57337;SDS011;43173;50.980;18.204;2023-06-22T12:12:11;7.00;;;5.10;;
57337;SDS011;43173;50.980;18.204;2023-06-22T12:14:37;5.00;;;4.60;;
57337;SDS011;43173;50.980;18.204;2023-06-22T12:17:03;5.10;;;4.70;;
57337;SDS011;43173;50.980;18.204;2023-06-22T12:19:29;8.00;;;4.60;;
57337;SDS011;43173;50.980;18.204;2023-06-22T12:21:54;4.70;;;4.20;;
57337;SDS011;43173;50.980;18.204;2023-06-22T12:24:20;5.10;;;4.60;;
57337;SDS011;43173;50.980;18.204;2023-06-22T12:26:45;5.10;;;4.60;;
57337;SDS011;43173;50.980;18.204;2023-06-22T12:29:11;5.30;;;4.80;;
57337;SDS011;43173;50.980;18.204;2023-06-22T12:31:37;5.30;;;4.80;;
57337;SDS011;43173;50.980;18.204;2023-06-22T12:34:04;4.30;;;3.90;;
57337;SDS011;43173;50.980;18.204;2023-06-22T12:36:30;4.20;;;3.90;;
57337;SDS011;43173;50.980;18.204;2023-06-22T12:38:55;4.10;;;3.80;;
57337;SDS011;43173;50.980;18.204;2023-06-22T12:41:21;4.10;;;3.80;;
57337;SDS011;43173;50.980;18.204;2023-06-22T12:43:47;4.00;;;3.70;;
57337;SDS011;43173;50.980;18.204;2023-06-22T12:46:13;3.70;;;3.40;;
57337;SDS011;43173;50.980;18.204;2023-06-22T12:48:38;4.60;;;3.50;;
57337;SDS011;43173;50.980;18.204;2023-06-22T12:51:08;4.00;;;3.70;;
57337;SDS011;43173;50.980;18.204;2023-06-22T12:53:34;3.80;;;3.50;;
57337;SDS011;43173;50.980;18.204;2023-06-22T12:56:00;4.50;;;3.80;;
57337;SDS011;43173;50.980;18.204;2023-06-22T12:58:26;4.30;;;4.00;;
57337;SDS011;43173;50.980;18.204;2023-06-22T13:00:52;4.20;;;3.90;;
57337;SDS011;43173;50.980;18.204;2023-06-22T13:03:18;5.50;;;4.50;;
57337;SDS011;43173;50.980;18.204;2023-06-22T13:05:44;4.50;;;4.10;;
57337;SDS011;43173;50.980;18.204;2023-06-22T13:08:10;5.80;;;4.30;;
57337;SDS011;43173;50.980;18.204;2023-06-22T13:10:36;5.10;;;4.50;;
57337;SDS011;43173;50.980;18.204;2023-06-22T13:13:01;4.70;;;4.30;;
57337;SDS011;43173;50.980;18.204;2023-06-22T13:15:30;5.70;;;4.00;;
57337;SDS011;43173;50.980;18.204;2023-06-22T13:17:56;5.30;;;4.00;;
57337;SDS011;43173;50.980;18.204;2023-06-22T13:20:21;4.50;;;4.10;;
57337;SDS011;43173;50.980;18.204;2023-06-22T13:22:47;4.70;;;4.20;;
57337;SDS011;43173;50.980;18.204;2023-06-22T13:25:12;4.60;;;4.10;;
57337;SDS011;43173;50.980;18.204;2023-06-22T13:27:39;5.00;;;4.60;;
57337;SDS011;43173;50.980;18.204;2023-06-22T13:30:05;4.70;;;4.30;;
57337;SDS011;43173;50.980;18.204;2023-06-22T13:32:32;4.50;;;4.10;;
57337;SDS011;43173;50.980;18.204;2023-06-22T13:34:57;4.60;;;4.20;;
57337;SDS011;43173;50.980;18.204;2023-06-22T13:37:23;4.60;;;4.20;;
57337;SDS011;43173;50.980;18.204;2023-06-22T13:39:48;4.30;;;3.90;;
57337;SDS011;43173;50.980;18.204;2023-06-22T13:42:14;4.80;;;4.30;;
57337;SDS011;43173;50.980;18.204;2023-06-22T13:44:39;5.10;;;4.60;;
57337;SDS011;43173;50.980;18.204;2023-06-22T13:47:05;4.30;;;3.90;;
57337;SDS011;43173;50.980;18.204;2023-06-22T13:49:31;5.00;;;3.90;;
57337;SDS011;43173;50.980;18.204;2023-06-22T13:51:57;6.00;;;4.30;;
57337;SDS011;43173;50.980;18.204;2023-06-22T13:54:22;4.40;;;4.10;;
57337;SDS011;43173;50.980;18.204;2023-06-22T13:56:48;4.70;;;3.80;;
57337;SDS011;43173;50.980;18.204;2023-06-22T13:59:13;4.50;;;3.90;;
57337;SDS011;43173;50.980;18.204;2023-06-22T14:01:39;4.20;;;3.90;;
57337;SDS011;43173;50.980;18.204;2023-06-22T14:04:06;4.70;;;4.30;;
57337;SDS011;43173;50.980;18.204;2023-06-22T14:06:31;5.20;;;4.30;;
57337;SDS011;43173;50.980;18.204;2023-06-22T14:08:57;5.00;;;4.10;;
57337;SDS011;43173;50.980;18.204;2023-06-22T14:11:23;4.90;;;4.10;;
57337;SDS011;43173;50.980;18.204;2023-06-22T14:13:49;5.10;;;4.60;;
57337;SDS011;43173;50.980;18.204;2023-06-22T14:16:15;4.80;;;4.40;;
57337;SDS011;43173;50.980;18.204;2023-06-22T14:18:40;5.00;;;4.40;;
57337;SDS011;43173;50.980;18.204;2023-06-22T14:21:07;4.60;;;4.20;;
57337;SDS011;43173;50.980;18.204;2023-06-22T14:23:32;5.30;;;4.80;;
57337;SDS011;43173;50.980;18.204;2023-06-22T14:25:58;5.20;;;4.70;;
57337;SDS011;43173;50.980;18.204;2023-06-22T14:28:24;4.80;;;4.40;;
57337;SDS011;43173;50.980;18.204;2023-06-22T14:30:49;5.10;;;4.60;;
57337;SDS011;43173;50.980;18.204;2023-06-22T14:33:15;4.90;;;4.50;;
57337;SDS011;43173;50.980;18.204;2023-06-22T14:35:41;7.60;;;5.10;;
57337;SDS011;43173;50.980;18.204;2023-06-22T14:38:06;4.90;;;4.50;;
57337;SDS011;43173;50.980;18.204;2023-06-22T14:40:32;5.00;;;4.50;;
57337;SDS011;43173;50.980;18.204;2023-06-22T14:42:58;5.10;;;4.70;;